Time;durP1;ratioP1;P1;durP2;ratioP2;P2;SDS_P1;SDS_P2;PMS_P1;PMS_P2;Temp;Humidity;BMP_temperature;BMP_pressure;BME280_temperature;BME280_humidity;BME280_pressure;Samples;Min_cycle;Max_cycle;Signal;HPM_P1;HPM_P2
2024/03/29 01:44:45;;;;;;;;;2.00;2.00;;;;;;;;5034422;28;9984;-82
2024/03/29 01:47:13;;;;;;;;;3.25;3.25;;;;;;;;5052020;28;9943;-81
2024/03/29 01:49:41;;;;;;;;;1.50;1.50;;;;;;;;5051896;28;10205;-82
2024/03/29 01:52:08;;;;;;;;;2.50;1.25;;;;;;;;5052638;28;10093;-82
2024/03/29 01:54:36;;;;;;;;;3.00;3.00;;;;;;;;5051382;28;10174;-82
2024/03/29 01:57:05;;;;;;;;;2.25;2.25;;;;;;;;5052839;28;10218;-83
2024/03/29 01:59:33;;;;;;;;;1.00;1.00;;;;;;;;5051983;28;10271;-83
2024/03/29 02:02:01;;;;;;;;;2.25;1.75;;;;;;;;5052336;28;10009;-83
2024/03/29 02:04:28;;;;;;;;;1.25;0.75;;;;;;;;5052142;28;10119;-83
2024/03/29 02:06:59;;;;;;;;;2.00;2.00;;;;;;;;5053362;28;9945;-83
2024/03/29 02:09:28;;;;;;;;;1.25;1.00;;;;;;;;5052689;28;10087;-83
2024/03/29 02:11:55;;;;;;;;;2.00;1.00;;;;;;;;5054667;28;10071;-84
2024/03/29 02:14:23;;;;;;;;;1.50;1.50;;;;;;;;5054574;28;10023;-84
2024/03/29 02:16:51;;;;;;;;;4.00;4.00;;;;;;;;5053484;28;10035;-83
2024/03/29 02:19:18;;;;;;;;;4.75;3.00;;;;;;;;5052411;28;10103;-84
2024/03/29 02:21:49;;;;;;;;;4.00;3.00;;;;;;;;5052004;28;10020;-84
2024/03/29 02:24:18;;;;;;;;;5.00;3.25;;;;;;;;5052513;28;10008;-85
2024/03/29 02:26:46;;;;;;;;;3.75;3.75;;;;;;;;5052614;28;10087;-85
2024/03/29 02:29:14;;;;;;;;;4.50;3.00;;;;;;;;5054114;28;9996;-84
2024/03/29 02:31:41;;;;;;;;;3.00;3.00;;;;;;;;5054373;28;10071;-83
2024/03/29 02:34:09;;;;;;;;;1.75;1.75;;;;;;;;5056781;28;10018;-83
2024/03/29 02:36:37;;;;;;;;;1.00;1.00;;;;;;;;5057036;28;9857;-82
2024/03/29 02:39:06;;;;;;;;;2.00;2.00;;;;;;;;5057329;28;9909;-82
2024/03/29 02:41:35;;;;;;;;;1.00;1.00;;;;;;;;5056450;28;10062;-83
2024/03/29 02:44:02;;;;;;;;;2.00;2.00;;;;;;;;5055814;28;9864;-83
2024/03/29 02:46:33;;;;;;;;;1.00;1.00;;;;;;;;5052676;28;9893;-82
2024/03/29 02:48:59;;;;;;;;;1.50;1.50;;;;;;;;5051319;28;9822;-84
2024/03/29 02:51:26;;;;;;;;;2.00;2.00;;;;;;;;5051262;28;10005;-83
2024/03/29 02:53:53;;;;;;;;;4.50;1.75;;;;;;;;5050970;28;9863;-84
2024/03/29 02:56:23;;;;;;;;;3.00;3.00;;;;;;;;5050710;28;10010;-84
2024/03/29 02:58:51;;;;;;;;;1.00;1.00;;;;;;;;5050798;28;9885;-82
2024/03/29 03:01:18;;;;;;;;;2.00;2.00;;;;;;;;5049937;28;9664;-82
2024/03/29 03:03:44;;;;;;;;;2.00;1.00;;;;;;;;5049883;28;9911;-82
2024/03/29 03:06:12;;;;;;;;;2.00;2.00;;;;;;;;5050553;28;9610;-82
2024/03/29 03:11:24;;;;;;;;;2.00;2.00;;;;;;;;5051353;28;10490;-82
2024/03/29 03:13:53;;;;;;;;;1.00;1.00;;;;;;;;5043058;28;9772;-82
2024/03/29 03:16:20;;;;;;;;;3.50;2.00;;;;;;;;5033685;28;9775;-82
2024/03/29 03:18:46;;;;;;;;;2.50;1.00;;;;;;;;5054932;28;9802;-82
2024/03/29 03:21:13;;;;;;;;;1.75;1.75;;;;;;;;5053854;28;9693;-82
2024/03/29 03:23:40;;;;;;;;;3.00;1.25;;;;;;;;5050253;28;9798;-82
2024/03/29 03:26:08;;;;;;;;;2.50;2.50;;;;;;;;5050175;28;9857;-83
2024/03/29 03:28:35;;;;;;;;;6.00;4.00;;;;;;;;5050099;28;9874;-82
2024/03/29 03:31:04;;;;;;;;;4.00;2.50;;;;;;;;5049927;28;9793;-81
2024/03/29 03:33:30;;;;;;;;;2.50;2.50;;;;;;;;5049581;28;9899;-82
2024/03/29 03:35:58;;;;;;;;;4.00;3.00;;;;;;;;5050574;28;9695;-82
2024/03/29 03:38:24;;;;;;;;;2.00;2.00;;;;;;;;5050243;28;9892;-82
2024/03/29 03:40:51;;;;;;;;;2.00;2.00;;;;;;;;5050018;28;9929;-82
2024/03/29 03:43:20;;;;;;;;;2.75;2.75;;;;;;;;5049508;28;9808;-82
2024/03/29 03:45:47;;;;;;;;;4.00;3.00;;;;;;;;5050639;28;9914;-82
2024/03/29 03:48:16;;;;;;;;;2.00;2.00;;;;;;;;5049899;28;9700;-82
2024/03/29 03:50:42;;;;;;;;;1.50;1.50;;;;;;;;5050384;28;10002;-82
2024/03/29 03:53:09;;;;;;;;;6.00;2.75;;;;;;;;5048977;28;9788;-82
2024/03/29 03:55:37;;;;;;;;;2.00;2.00;;;;;;;;5049727;28;9769;-84
2024/03/29 03:58:04;;;;;;;;;3.00;3.00;;;;;;;;5049763;28;9708;-83
2024/03/29 04:00:30;;;;;;;;;5.00;4.00;;;;;;;;5049234;28;9728;-83
2024/03/29 04:02:58;;;;;;;;;3.00;3.00;;;;;;;;5050497;28;9951;-84
2024/03/29 04:05:26;;;;;;;;;4.50;3.00;;;;;;;;5050286;28;10047;-83
2024/03/29 04:07:53;;;;;;;;;3.00;3.00;;;;;;;;5050246;28;9768;-83
2024/03/29 04:10:20;;;;;;;;;2.00;2.00;;;;;;;;5050198;28;9879;-83
2024/03/29 04:12:47;;;;;;;;;3.75;2.75;;;;;;;;5049553;28;10091;-83
2024/03/29 04:15:13;;;;;;;;;3.00;2.00;;;;;;;;5051480;28;9775;-82
2024/03/29 04:17:40;;;;;;;;;5.50;2.75;;;;;;;;5051802;28;9882;-83
2024/03/29 04:20:07;;;;;;;;;1.75;1.75;;;;;;;;5052846;28;10198;-83
2024/03/29 04:22:36;;;;;;;;;0.25;0.25;;;;;;;;5048856;28;9857;-83
2024/03/29 04:25:03;;;;;;;;;3.00;3.00;;;;;;;;5048785;28;9852;-82
2024/03/29 04:27:30;;;;;;;;;1.00;1.00;;;;;;;;5054557;28;9973;-83
2024/03/29 04:29:59;;;;;;;;;1.25;1.25;;;;;;;;5054798;28;9790;-82
2024/03/29 04:32:26;;;;;;;;;2.00;2.00;;;;;;;;5054274;28;9871;-82
2024/03/29 04:34:52;;;;;;;;;1.25;1.25;;;;;;;;5052306;28;10068;-84
2024/03/29 04:37:19;;;;;;;;;1.50;1.50;;;;;;;;5051206;28;9810;-83
2024/03/29 04:39:48;;;;;;;;;0.75;0.75;;;;;;;;5064217;28;9905;-82
2024/03/29 04:42:16;;;;;;;;;1.00;1.00;;;;;;;;5058322;28;9901;-84
2024/03/29 04:44:43;;;;;;;;;3.75;2.00;;;;;;;;5049865;28;9794;-83
2024/03/29 04:47:10;;;;;;;;;1.00;1.00;;;;;;;;5048224;28;9861;-82
2024/03/29 04:49:37;;;;;;;;;1.00;1.00;;;;;;;;5036070;28;10134;-82
2024/03/29 04:52:07;;;;;;;;;2.00;2.00;;;;;;;;5048367;28;9973;-82
2024/03/29 04:54:35;;;;;;;;;2.25;1.00;;;;;;;;5047673;28;10045;-81
2024/03/29 04:57:06;;;;;;;;;2.00;2.00;;;;;;;;5037172;28;10016;-82
2024/03/29 04:59:33;;;;;;;;;5.00;2.75;;;;;;;;5049234;28;10004;-85
2024/03/29 05:02:01;;;;;;;;;2.00;2.00;;;;;;;;5054691;28;10220;-83
2024/03/29 05:04:29;;;;;;;;;1.75;1.75;;;;;;;;5050236;28;10919;-82
2024/03/29 05:06:57;;;;;;;;;1.25;1.25;;;;;;;;5052275;28;10032;-82
2024/03/29 05:09:25;;;;;;;;;3.00;1.50;;;;;;;;5052214;28;10095;-83
2024/03/29 05:11:52;;;;;;;;;2.50;1.75;;;;;;;;5052574;28;10201;-81
2024/03/29 05:14:22;;;;;;;;;4.50;2.00;;;;;;;;5050885;28;10135;-81
2024/03/29 05:16:49;;;;;;;;;6.00;6.00;;;;;;;;5048279;28;10264;-81
2024/03/29 05:19:17;;;;;;;;;12.75;12.75;;;;;;;;5030751;28;10385;-83
2024/03/29 05:21:44;;;;;;;;;3.00;3.00;;;;;;;;5047204;28;10720;-82
2024/03/29 05:24:11;;;;;;;;;3.75;2.00;;;;;;;;5047816;28;10332;-84
2024/03/29 05:26:39;;;;;;;;;2.50;2.50;;;;;;;;5047360;28;10166;-83
2024/03/29 05:29:07;;;;;;;;;2.00;2.00;;;;;;;;5028256;28;10198;-84
2024/03/29 05:31:36;;;;;;;;;2.00;2.00;;;;;;;;5048165;28;10192;-84
2024/03/29 05:34:03;;;;;;;;;2.00;2.00;;;;;;;;5048544;28;10277;-83
2024/03/29 05:36:35;;;;;;;;;3.00;1.75;;;;;;;;5048583;28;10183;-83
2024/03/29 05:39:04;;;;;;;;;2.00;2.00;;;;;;;;5048776;28;10163;-83
2024/03/29 05:41:31;;;;;;;;;5.25;2.50;;;;;;;;5048183;28;10097;-83
2024/03/29 05:44:01;;;;;;;;;1.50;1.50;;;;;;;;5048999;28;10869;-83
2024/03/29 05:46:33;;;;;;;;;3.00;1.00;;;;;;;;5048232;28;10060;-83
2024/03/29 05:49:12;;;;;;;;;2.00;2.00;;;;;;;;5049075;28;10007;-83
2024/03/29 05:51:40;;;;;;;;;2.00;2.00;;;;;;;;5047439;28;10000;-83
2024/03/29 05:54:09;;;;;;;;;1.00;1.00;;;;;;;;5047940;28;10030;-83
2024/03/29 05:56:38;;;;;;;;;2.00;2.00;;;;;;;;5048797;28;10138;-83
2024/03/29 05:59:06;;;;;;;;;1.75;1.75;;;;;;;;5048541;28;9938;-83
2024/03/29 06:01:33;;;;;;;;;1.00;1.00;;;;;;;;5048228;28;9923;-82
2024/03/29 06:04:08;;;;;;;;;1.00;1.00;;;;;;;;5048615;28;9961;-83
2024/03/29 06:06:36;;;;;;;;;2.00;2.00;;;;;;;;5050014;28;9928;-83
2024/03/29 06:09:03;;;;;;;;;1.50;1.50;;;;;;;;5050488;28;10144;-82
2024/03/29 06:11:31;;;;;;;;;2.00;2.00;;;;;;;;5053362;28;10050;-79
2024/03/29 06:19:38;;;;;;;;;1.25;1.00;;;;;;;;5043769;28;9987;-80
2024/03/29 06:22:07;;;;;;;;;2.00;1.00;;;;;;;;5056167;28;10026;-79
2024/03/29 06:24:34;;;;;;;;;1.00;1.00;;;;;;;;5054640;28;10063;-80
2024/03/29 06:27:02;;;;;;;;;1.75;1.75;;;;;;;;5050868;28;10832;-79
2024/03/29 06:29:31;;;;;;;;;1.00;1.00;;;;;;;;5050850;28;10112;-79
2024/03/29 06:32:00;;;;;;;;;2.00;2.00;;;;;;;;5050024;28;10029;-79
2024/03/29 06:34:32;;;;;;;;;0.50;0.50;;;;;;;;5051454;28;10944;-79
2024/03/29 06:37:01;;;;;;;;;0.50;0.50;;;;;;;;5051175;28;9940;-80
2024/03/29 06:39:31;;;;;;;;;1.00;1.00;;;;;;;;5051071;28;10029;-80
2024/03/29 06:42:02;;;;;;;;;1.00;1.00;;;;;;;;5050080;28;9980;-80
2024/03/29 06:44:29;;;;;;;;;2.50;1.00;;;;;;;;5050635;28;10063;-79
2024/03/29 06:46:57;;;;;;;;;1.00;1.00;;;;;;;;5050761;28;10049;-80
2024/03/29 06:49:25;;;;;;;;;1.00;1.00;;;;;;;;5050703;28;9963;-80
2024/03/29 06:51:53;;;;;;;;;0.00;0.00;;;;;;;;5050658;28;10151;-80
2024/03/29 06:54:26;;;;;;;;;2.00;2.00;;;;;;;;5051808;28;10009;-79
2024/03/29 06:56:53;;;;;;;;;1.00;1.00;;;;;;;;5054307;28;9924;-79
2024/03/29 06:59:20;;;;;;;;;1.00;1.00;;;;;;;;5054346;28;10018;-80
2024/03/29 07:01:51;;;;;;;;;1.75;1.75;;;;;;;;5051147;28;9842;-80
2024/03/29 07:04:20;;;;;;;;;1.00;1.00;;;;;;;;5049972;28;10654;-79
2024/03/29 07:06:52;;;;;;;;;2.50;1.00;;;;;;;;5050435;28;9877;-80
2024/03/29 07:09:22;;;;;;;;;2.00;1.00;;;;;;;;5050228;28;9786;-79
2024/03/29 07:11:54;;;;;;;;;2.75;1.00;;;;;;;;5051660;28;9844;-80
2024/03/29 07:14:28;;;;;;;;;1.00;1.00;;;;;;;;5053604;28;9942;-79
2024/03/29 07:16:57;;;;;;;;;1.75;1.75;;;;;;;;5062213;28;9786;-78
2024/03/29 07:19:24;;;;;;;;;1.00;1.00;;;;;;;;5051561;28;9724;-80
2024/03/29 07:21:53;;;;;;;;;3.75;2.00;;;;;;;;5052467;28;9936;-80
2024/03/29 07:24:22;;;;;;;;;1.00;1.00;;;;;;;;5050567;28;9797;-80
2024/03/29 07:26:49;;;;;;;;;2.25;2.25;;;;;;;;5049889;28;9766;-80
2024/03/29 07:29:16;;;;;;;;;3.50;2.50;;;;;;;;5049250;28;10161;-82
2024/03/29 07:31:49;;;;;;;;;2.00;2.00;;;;;;;;5049173;28;9660;-80
2024/03/29 07:34:18;;;;;;;;;1.50;1.50;;;;;;;;5032681;28;9533;-82
2024/03/29 07:36:49;;;;;;;;;2.25;2.25;;;;;;;;5050075;28;9773;-81
2024/03/29 07:39:16;;;;;;;;;3.00;3.00;;;;;;;;5049966;28;9869;-81
2024/03/29 07:41:46;;;;;;;;;1.75;1.75;;;;;;;;5049332;28;9873;-80
2024/03/29 07:44:13;;;;;;;;;4.00;4.00;;;;;;;;5049958;28;9702;-80
2024/03/29 07:46:40;;;;;;;;;2.00;2.00;;;;;;;;5049423;28;9715;-82
2024/03/29 07:49:08;;;;;;;;;2.75;2.75;;;;;;;;5050591;28;9657;-83
2024/03/29 07:51:35;;;;;;;;;2.00;2.00;;;;;;;;5047331;28;9737;-81
2024/03/29 07:54:02;;;;;;;;;1.50;1.50;;;;;;;;5050458;28;9615;-77
2024/03/29 07:56:30;;;;;;;;;1.50;1.50;;;;;;;;5053138;28;9559;-80
2024/03/29 07:58:59;;;;;;;;;5.25;3.50;;;;;;;;5054931;28;9624;-81
2024/03/29 08:01:26;;;;;;;;;1.00;1.00;;;;;;;;5052918;28;9799;-79
2024/03/29 08:03:54;;;;;;;;;4.25;2.00;;;;;;;;5047821;28;9632;-80
2024/03/29 08:06:23;;;;;;;;;1.00;1.00;;;;;;;;5054160;28;9960;-80
2024/03/29 08:08:50;;;;;;;;;2.67;2.67;;;;;;;;5054384;28;9463;-81
2024/03/29 08:11:17;;;;;;;;;4.00;2.00;;;;;;;;5055309;28;9525;-80
2024/03/29 08:13:45;;;;;;;;;1.25;1.25;;;;;;;;5056022;28;9500;-82
2024/03/29 08:16:16;;;;;;;;;3.75;2.00;;;;;;;;5050413;28;9561;-80
2024/03/29 08:18:44;;;;;;;;;2.00;2.00;;;;;;;;5050110;28;9544;-80
2024/03/29 08:21:13;;;;;;;;;1.67;1.67;;;;;;;;5052736;28;9442;-80
2024/03/29 08:23:41;;;;;;;;;1.33;1.33;;;;;;;;5051302;28;9267;-79
2024/03/29 08:26:08;;;;;;;;;1.00;1.00;;;;;;;;5047893;28;9231;-81
2024/03/29 08:28:37;;;;;;;;;1.00;1.00;;;;;;;;5048304;28;9270;-79
2024/03/29 08:31:05;;;;;;;;;2.33;1.00;;;;;;;;5048028;28;9958;-80
2024/03/29 08:33:37;;;;;;;;;1.00;1.00;;;;;;;;5047753;28;10107;-80
2024/03/29 08:36:09;;;;;;;;;1.00;1.00;;;;;;;;5048176;28;9313;-79
2024/03/29 08:38:37;;;;;;;;;0.00;0.00;;;;;;;;5048507;28;9169;-80
2024/03/29 08:41:07;;;;;;;;;1.00;1.00;;;;;;;;5048924;28;9071;-79
2024/03/29 08:43:36;;;;;;;;;1.00;1.00;;;;;;;;5049310;28;9080;-77
2024/03/29 08:46:03;;;;;;;;;0.00;0.00;;;;;;;;5051743;28;9304;-78
2024/03/29 08:48:31;;;;;;;;;4.00;1.00;;;;;;;;5051358;28;9206;-80
2024/03/29 08:50:59;;;;;;;;;1.00;1.00;;;;;;;;5049512;28;9006;-81
2024/03/29 08:53:28;;;;;;;;;0.00;0.00;;;;;;;;5044237;28;8973;-78
2024/03/29 08:55:57;;;;;;;;;0.67;0.67;;;;;;;;5047741;28;9145;-80
2024/03/29 08:58:27;;;;;;;;;1.00;1.00;;;;;;;;5048279;28;9095;-82
2024/03/29 09:00:56;;;;;;;;;2.67;2.67;;;;;;;;5047460;28;8989;-81
2024/03/29 09:03:23;;;;;;;;;1.00;1.00;;;;;;;;5047988;28;9160;-80
2024/03/29 09:05:55;;;;;;;;;2.25;2.25;;;;;;;;5047981;28;9009;-81
2024/03/29 09:08:26;;;;;;;;;0.25;0.25;;;;;;;;5048740;28;8873;-81
2024/03/29 09:10:55;;;;;;;;;3.00;1.00;;;;;;;;5048157;28;8839;-81
2024/03/29 09:13:23;;;;;;;;;1.25;1.25;;;;;;;;5048657;28;9083;-82
2024/03/29 09:15:50;;;;;;;;;0.25;0.25;;;;;;;;5048791;28;8872;-81
2024/03/29 09:18:23;;;;;;;;;0.00;0.00;;;;;;;;5048220;28;8869;-83
2024/03/29 09:20:58;;;;;;;;;1.75;0.00;;;;;;;;5048200;28;8977;-81
2024/03/29 09:23:28;;;;;;;;;1.00;1.00;;;;;;;;5047763;28;8831;-80
2024/03/29 09:25:55;;;;;;;;;2.00;2.00;;;;;;;;5048436;28;8842;-80
2024/03/29 09:28:26;;;;;;;;;1.00;1.00;;;;;;;;5047568;28;8888;-81
2024/03/29 09:30:59;;;;;;;;;1.25;1.25;;;;;;;;5047735;28;8932;-81
2024/03/29 09:33:28;;;;;;;;;1.50;1.50;;;;;;;;5048173;28;8870;-81
2024/03/29 09:35:58;;;;;;;;;1.00;1.00;;;;;;;;5048379;28;8870;-82
2024/03/29 09:38:30;;;;;;;;;3.00;1.00;;;;;;;;5048390;28;8880;-83
2024/03/29 09:41:11;;;;;;;;;1.00;1.00;;;;;;;;5050430;28;8878;-83
2024/03/29 09:43:40;;;;;;;;;1.00;1.00;;;;;;;;5054108;28;8897;-82
2024/03/29 09:46:08;;;;;;;;;0.00;0.00;;;;;;;;5056118;28;8885;-83
2024/03/29 09:48:37;;;;;;;;;1.00;1.00;;;;;;;;5065353;28;8869;-79
2024/03/29 09:51:05;;;;;;;;;3.50;1.50;;;;;;;;5062882;28;8869;-79
2024/03/29 09:53:36;;;;;;;;;0.50;0.50;;;;;;;;5063908;28;8900;-80
2024/03/29 09:56:05;;;;;;;;;0.50;0.50;;;;;;;;5064036;28;8912;-80
2024/03/29 09:58:32;;;;;;;;;2.00;2.00;;;;;;;;5060110;28;8870;-83
2024/03/29 10:01:04;;;;;;;;;1.00;1.00;;;;;;;;5078019;28;8807;-79
2024/03/29 10:03:32;;;;;;;;;0.25;0.25;;;;;;;;5060146;28;8850;-81
2024/03/29 10:05:59;;;;;;;;;0.00;0.00;;;;;;;;5054940;28;9625;-83
2024/03/29 10:08:27;;;;;;;;;1.00;1.00;;;;;;;;5054751;28;8854;-81
2024/03/29 10:10:57;;;;;;;;;1.00;1.00;;;;;;;;5056264;28;8850;-82
2024/03/29 10:13:25;;;;;;;;;0.50;0.50;;;;;;;;5053760;28;8870;-79
2024/03/29 10:15:55;;;;;;;;;1.00;1.00;;;;;;;;5051320;28;8870;-80
2024/03/29 10:18:23;;;;;;;;;1.00;1.00;;;;;;;;5051048;28;9004;-80
2024/03/29 10:21:01;;;;;;;;;0.25;0.25;;;;;;;;5051048;28;8846;-80
2024/03/29 10:23:28;;;;;;;;;0.75;0.75;;;;;;;;5051376;28;8868;-81
2024/03/29 10:26:03;;;;;;;;;0.00;0.00;;;;;;;;5051952;28;8874;-82
2024/03/29 10:28:34;;;;;;;;;0.75;0.00;;;;;;;;5033698;28;9660;-81
2024/03/29 10:31:03;;;;;;;;;0.00;0.00;;;;;;;;5051922;28;8901;-80
2024/03/29 10:33:31;;;;;;;;;0.25;0.25;;;;;;;;5055226;28;8870;-82
2024/03/29 10:35:59;;;;;;;;;0.00;0.00;;;;;;;;5054906;28;8881;-81
2024/03/29 10:38:29;;;;;;;;;1.25;0.00;;;;;;;;5052207;28;8886;-82
2024/03/29 10:40:58;;;;;;;;;0.00;0.00;;;;;;;;5051585;28;8845;-83
2024/03/29 10:43:26;;;;;;;;;0.75;0.75;;;;;;;;5049331;28;8858;-79
2024/03/29 10:45:58;;;;;;;;;1.50;0.75;;;;;;;;5050407;28;9598;-82
2024/03/29 10:48:27;;;;;;;;;0.25;0.25;;;;;;;;5048747;28;8877;-79
2024/03/29 10:50:57;;;;;;;;;0.00;0.00;;;;;;;;5051082;28;8931;-80
2024/03/29 10:53:25;;;;;;;;;1.00;1.00;;;;;;;;5051450;28;8956;-81
2024/03/29 10:55:59;;;;;;;;;0.00;0.00;;;;;;;;5050871;28;8854;-80
2024/03/29 10:58:35;;;;;;;;;1.00;1.00;;;;;;;;5050549;28;8850;-81
2024/03/29 11:01:03;;;;;;;;;0.00;0.00;;;;;;;;5049366;28;8852;-79
2024/03/29 11:03:46;;;;;;;;;0.00;0.00;;;;;;;;5066296;28;8876;-81
2024/03/29 11:06:15;;;;;;;;;0.25;0.00;;;;;;;;5049574;28;8858;-82
2024/03/29 11:08:45;;;;;;;;;0.00;0.00;;;;;;;;5050563;28;8935;-82
2024/03/29 11:11:15;;;;;;;;;0.00;0.00;;;;;;;;5049849;28;8858;-81
2024/03/29 11:13:48;;;;;;;;;0.00;0.00;;;;;;;;5054658;28;8861;-83
2024/03/29 11:16:16;;;;;;;;;0.00;0.00;;;;;;;;5048487;28;9578;-80
2024/03/29 11:18:45;;;;;;;;;0.00;0.00;;;;;;;;5057227;28;9137;-81
2024/03/29 11:21:18;;;;;;;;;0.00;0.00;;;;;;;;5048267;28;8916;-81
2024/03/29 11:23:50;;;;;;;;;0.00;0.00;;;;;;;;5060521;28;9725;-82
2024/03/29 11:26:22;;;;;;;;;0.00;0.00;;;;;;;;5060607;28;8870;-86
2024/03/29 11:29:03;;;;;;;;;0.00;0.00;;;;;;;;5060033;28;8878;-79
2024/03/29 11:31:39;;;;;;;;;0.00;0.00;;;;;;;;5060407;28;8814;-83
2024/03/29 11:34:10;;;;;;;;;0.00;0.00;;;;;;;;5058878;28;8920;-81
2024/03/29 11:36:40;;;;;;;;;0.00;0.00;;;;;;;;5059212;28;8900;-82
2024/03/29 11:39:09;;;;;;;;;0.00;0.00;;;;;;;;5059166;28;8843;-83
2024/03/29 11:41:48;;;;;;;;;1.75;0.00;;;;;;;;5059044;28;8944;-85
2024/03/29 11:44:15;;;;;;;;;0.50;0.50;;;;;;;;5054092;28;8861;-83
2024/03/29 11:46:44;;;;;;;;;0.25;0.25;;;;;;;;5056609;28;8863;-81
2024/03/29 11:49:12;;;;;;;;;0.00;0.00;;;;;;;;5061356;28;8854;-82
2024/03/29 11:51:39;;;;;;;;;0.00;0.00;;;;;;;;5056091;28;8983;-84
2024/03/29 11:54:06;;;;;;;;;0.00;0.00;;;;;;;;5044121;28;8873;-80
2024/03/29 11:56:34;;;;;;;;;0.00;0.00;;;;;;;;5052479;28;8831;-81
2024/03/29 11:59:07;;;;;;;;;0.00;0.00;;;;;;;;5054782;28;8858;-80
2024/03/29 12:01:39;;;;;;;;;0.00;0.00;;;;;;;;5041956;28;8817;-79
2024/03/29 12:04:06;;;;;;;;;0.00;0.00;;;;;;;;5050560;28;8846;-80
2024/03/29 12:06:34;;;;;;;;;0.00;0.00;;;;;;;;5049281;28;8867;-80
2024/03/29 12:09:04;;;;;;;;;0.00;0.00;;;;;;;;5048953;28;8900;-79
2024/03/29 12:11:33;;;;;;;;;0.00;0.00;;;;;;;;5048188;28;8886;-80
2024/03/29 12:14:04;;;;;;;;;1.50;0.00;;;;;;;;5050838;28;8866;-81
2024/03/29 12:16:38;;;;;;;;;1.00;0.00;;;;;;;;5052593;28;8859;-80
2024/03/29 12:19:05;;;;;;;;;0.00;0.00;;;;;;;;5069906;28;8838;-78
2024/03/29 12:21:32;;;;;;;;;0.00;0.00;;;;;;;;5055944;28;8874;-84
2024/03/29 12:24:01;;;;;;;;;0.00;0.00;;;;;;;;5050760;28;8870;-84
2024/03/29 12:26:30;;;;;;;;;0.50;0.50;;;;;;;;5050466;28;8984;-79
2024/03/29 12:28:58;;;;;;;;;0.50;0.00;;;;;;;;5049018;28;8843;-79
2024/03/29 12:31:25;;;;;;;;;0.00;0.00;;;;;;;;5049751;28;9586;-87
2024/03/29 12:33:54;;;;;;;;;0.00;0.00;;;;;;;;5049774;28;9016;-85
2024/03/29 12:36:26;;;;;;;;;0.00;0.00;;;;;;;;5051511;28;8928;-87
2024/03/29 12:39:02;;;;;;;;;0.00;0.00;;;;;;;;5051397;28;8869;-85
2024/03/29 12:41:30;;;;;;;;;0.00;0.00;;;;;;;;5050497;28;8862;-85
2024/03/29 12:43:58;;;;;;;;;0.00;0.00;;;;;;;;5050641;28;8866;-80
2024/03/29 12:46:26;;;;;;;;;0.00;0.00;;;;;;;;5049525;28;9042;-79
2024/03/29 12:49:00;;;;;;;;;0.00;0.00;;;;;;;;5051480;28;9618;-79
2024/03/29 12:51:29;;;;;;;;;0.00;0.00;;;;;;;;5051394;28;8959;-79
2024/03/29 12:54:00;;;;;;;;;0.00;0.00;;;;;;;;5048673;28;8876;-79
2024/03/29 12:56:27;;;;;;;;;0.00;0.00;;;;;;;;5048134;28;8859;-80
2024/03/29 12:58:54;;;;;;;;;1.25;0.00;;;;;;;;5048595;28;9026;-79
2024/03/29 13:01:22;;;;;;;;;0.00;0.00;;;;;;;;5047570;28;8814;-80
2024/03/29 13:03:49;;;;;;;;;0.00;0.00;;;;;;;;5049444;28;8897;-81
2024/03/29 13:06:19;;;;;;;;;0.00;0.00;;;;;;;;5048524;28;8872;-82
2024/03/29 13:08:46;;;;;;;;;0.25;0.25;;;;;;;;5048420;28;8847;-82
2024/03/29 13:11:13;;;;;;;;;0.00;0.00;;;;;;;;5036680;28;8862;-83
2024/03/29 13:13:41;;;;;;;;;0.00;0.00;;;;;;;;5030639;28;8867;-82
2024/03/29 13:16:09;;;;;;;;;0.00;0.00;;;;;;;;5048625;28;8835;-83
2024/03/29 13:18:38;;;;;;;;;0.00;0.00;;;;;;;;5048634;28;8927;-80
2024/03/29 13:21:05;;;;;;;;;0.00;0.00;;;;;;;;5050019;28;8882;-82
2024/03/29 13:23:34;;;;;;;;;1.50;0.50;;;;;;;;5052068;28;8900;-83
2024/03/29 13:26:06;;;;;;;;;0.00;0.00;;;;;;;;5055559;28;8958;-79
2024/03/29 13:28:34;;;;;;;;;0.00;0.00;;;;;;;;5056555;28;8862;-81
2024/03/29 13:31:04;;;;;;;;;0.00;0.00;;;;;;;;5060157;28;9673;-80
2024/03/29 13:33:31;;;;;;;;;0.00;0.00;;;;;;;;5061226;28;8985;-81
2024/03/29 13:36:02;;;;;;;;;0.00;0.00;;;;;;;;5061656;28;8932;-80
2024/03/29 13:38:29;;;;;;;;;0.00;0.00;;;;;;;;5060747;28;8959;-81
2024/03/29 13:41:03;;;;;;;;;0.00;0.00;;;;;;;;5059403;28;8851;-80
2024/03/29 13:43:30;;;;;;;;;0.00;0.00;;;;;;;;5053537;28;8858;-78
2024/03/29 13:45:58;;;;;;;;;0.00;0.00;;;;;;;;5042769;28;8843;-80
2024/03/29 13:48:26;;;;;;;;;0.50;0.50;;;;;;;;5057952;28;8881;-81
2024/03/29 13:50:56;;;;;;;;;0.25;0.00;;;;;;;;5057289;28;8854;-82
2024/03/29 13:53:26;;;;;;;;;1.50;0.00;;;;;;;;5054060;28;8862;-80
2024/03/29 13:55:53;;;;;;;;;0.00;0.00;;;;;;;;5051663;28;8889;-80
2024/03/29 13:58:22;;;;;;;;;0.00;0.00;;;;;;;;5052026;28;8877;-81
2024/03/29 14:00:50;;;;;;;;;0.00;0.00;;;;;;;;5051861;28;8861;-82
2024/03/29 14:03:17;;;;;;;;;0.00;0.00;;;;;;;;5051529;28;8850;-82
2024/03/29 14:05:47;;;;;;;;;0.00;0.00;;;;;;;;5051058;28;8851;-83
2024/03/29 14:08:14;;;;;;;;;1.00;1.00;;;;;;;;5051757;28;8854;-83
2024/03/29 14:10:42;;;;;;;;;0.00;0.00;;;;;;;;5051210;28;8870;-83
2024/03/29 14:13:10;;;;;;;;;0.00;0.00;;;;;;;;5051699;28;8872;-83
2024/03/29 14:15:40;;;;;;;;;0.00;0.00;;;;;;;;5051444;28;8842;-83
2024/03/29 14:18:10;;;;;;;;;0.00;0.00;;;;;;;;5051844;28;8955;-82
2024/03/29 14:20:37;;;;;;;;;0.00;0.00;;;;;;;;5051523;28;8843;-84
2024/03/29 14:23:06;;;;;;;;;0.00;0.00;;;;;;;;5052322;28;8904;-83
2024/03/29 14:25:33;;;;;;;;;1.50;0.00;;;;;;;;5051164;28;8876;-81
2024/03/29 14:28:02;;;;;;;;;0.25;0.25;;;;;;;;5051869;28;8834;-80
2024/03/29 14:30:30;;;;;;;;;0.00;0.00;;;;;;;;5050937;28;8786;-82
2024/03/29 14:33:06;;;;;;;;;0.00;0.00;;;;;;;;5051760;28;8855;-82
2024/03/29 14:35:36;;;;;;;;;0.00;0.00;;;;;;;;5039652;28;8855;-80
2024/03/29 14:38:04;;;;;;;;;0.00;0.00;;;;;;;;5050755;28;8856;-81
2024/03/29 14:40:31;;;;;;;;;0.00;0.00;;;;;;;;5051121;28;8880;-79
2024/03/29 14:42:58;;;;;;;;;1.00;0.00;;;;;;;;5052984;28;8859;-81
2024/03/29 14:45:26;;;;;;;;;0.00;0.00;;;;;;;;5056293;28;8857;-78
2024/03/29 14:47:56;;;;;;;;;0.00;0.00;;;;;;;;5058949;28;8861;-80
2024/03/29 14:50:24;;;;;;;;;0.00;0.00;;;;;;;;5051712;28;8846;-80
2024/03/29 14:52:51;;;;;;;;;0.00;0.00;;;;;;;;5050642;28;8874;-80
2024/03/29 14:55:19;;;;;;;;;1.50;0.00;;;;;;;;5050709;28;8977;-83
2024/03/29 14:57:46;;;;;;;;;0.00;0.00;;;;;;;;5050977;28;8892;-83
2024/03/29 15:00:17;;;;;;;;;0.00;0.00;;;;;;;;5050115;28;8857;-82
2024/03/29 15:02:45;;;;;;;;;0.00;0.00;;;;;;;;5050731;28;8862;-82
2024/03/29 15:05:12;;;;;;;;;0.00;0.00;;;;;;;;5051194;28;8849;-84
2024/03/29 15:07:41;;;;;;;;;0.00;0.00;;;;;;;;5051546;28;8838;-83
2024/03/29 15:10:10;;;;;;;;;0.00;0.00;;;;;;;;5051653;28;8859;-82
2024/03/29 15:12:37;;;;;;;;;0.00;0.00;;;;;;;;5054527;28;8850;-79
2024/03/29 15:15:04;;;;;;;;;0.75;0.75;;;;;;;;5056198;28;8908;-84
2024/03/29 15:17:32;;;;;;;;;0.25;0.00;;;;;;;;5058198;28;8835;-79
2024/03/29 15:20:01;;;;;;;;;0.00;0.00;;;;;;;;5061188;28;8850;-78
2024/03/29 15:22:29;;;;;;;;;0.00;0.00;;;;;;;;5060300;28;8874;-84
2024/03/29 15:24:57;;;;;;;;;0.00;0.00;;;;;;;;5060737;28;8920;-85
2024/03/29 15:29:03;;;;;;;;;0.00;0.00;;;;;;;;5058444;28;8887;-86
2024/03/29 15:30:14;;;;;;;;;0.00;0.00;;;;;;;;5050760;28;8837;-78
2024/03/29 15:32:41;;;;;;;;;0.00;0.00;;;;;;;;5051631;28;8878;-80
2024/03/29 15:35:09;;;;;;;;;0.00;0.00;;;;;;;;5052902;28;8846;-81
2024/03/29 15:37:37;;;;;;;;;0.00;0.00;;;;;;;;5052446;28;8870;-76
2024/03/29 15:40:07;;;;;;;;;0.00;0.00;;;;;;;;5047431;28;8861;-78
2024/03/29 15:42:38;;;;;;;;;0.00;0.00;;;;;;;;5048134;28;8878;-81
2024/03/29 15:45:11;;;;;;;;;0.00;0.00;;;;;;;;5049461;28;8855;-77
2024/03/29 15:47:38;;;;;;;;;0.00;0.00;;;;;;;;5050373;28;8858;-77
2024/03/29 15:50:06;;;;;;;;;0.00;0.00;;;;;;;;5051765;28;8851;-77
2024/03/29 15:52:35;;;;;;;;;1.00;1.00;;;;;;;;5050093;28;8874;-77
2024/03/29 15:55:02;;;;;;;;;0.00;0.00;;;;;;;;5050076;28;8850;-78
2024/03/29 15:57:33;;;;;;;;;1.00;1.00;;;;;;;;5050415;28;8847;-78
2024/03/29 16:00:04;;;;;;;;;0.00;0.00;;;;;;;;5040779;28;8858;-78
2024/03/29 16:02:46;;;;;;;;;1.00;0.00;;;;;;;;5052730;28;8807;-76
2024/03/29 16:05:14;;;;;;;;;0.00;0.00;;;;;;;;5051372;28;9667;-81
2024/03/29 16:07:41;;;;;;;;;0.00;0.00;;;;;;;;5049160;28;8880;-78
2024/03/29 16:10:15;;;;;;;;;0.00;0.00;;;;;;;;5049723;28;8874;-81
2024/03/29 16:12:45;;;;;;;;;0.00;0.00;;;;;;;;5049614;28;8877;-77
2024/03/29 16:15:13;;;;;;;;;2.00;0.00;;;;;;;;5049260;28;8876;-81
2024/03/29 16:17:43;;;;;;;;;0.00;0.00;;;;;;;;5049069;28;8861;-79
2024/03/29 16:20:10;;;;;;;;;0.00;0.00;;;;;;;;5048739;28;8971;-77
2024/03/29 16:22:39;;;;;;;;;0.00;0.00;;;;;;;;5048535;28;8872;-77
2024/03/29 16:25:06;;;;;;;;;0.00;0.00;;;;;;;;5048444;28;8862;-79
2024/03/29 16:27:33;;;;;;;;;0.00;0.00;;;;;;;;5048761;28;8838;-77
2024/03/29 16:30:01;;;;;;;;;1.00;1.00;;;;;;;;5049455;28;8845;-84
2024/03/29 16:32:37;;;;;;;;;0.00;0.00;;;;;;;;5048542;28;8949;-78
2024/03/29 16:35:05;;;;;;;;;0.00;0.00;;;;;;;;5048942;28;8873;-81
2024/03/29 16:37:32;;;;;;;;;2.00;2.00;;;;;;;;5048730;28;8870;-76
2024/03/29 16:39:58;;;;;;;;;2.00;2.00;;;;;;;;5048480;28;8912;-80
2024/03/29 16:42:25;;;;;;;;;0.25;0.25;;;;;;;;5048375;28;8850;-79
2024/03/29 16:44:55;;;;;;;;;0.00;0.00;;;;;;;;5048335;28;8865;-79
2024/03/29 16:47:25;;;;;;;;;0.50;0.50;;;;;;;;5048554;28;8874;-77
2024/03/29 16:49:51;;;;;;;;;0.25;0.00;;;;;;;;5047448;28;8866;-79
2024/03/29 16:52:20;;;;;;;;;2.00;1.00;;;;;;;;5048204;28;8859;-81
2024/03/29 16:54:46;;;;;;;;;0.00;0.00;;;;;;;;5051506;28;8846;-88